sensor_id;sensor_type;location;lat;lon;timestamp;P1;durP1;ratioP1;P2;durP2;ratioP2
37931;SDS011;23758;42.640;23.302;2022-11-15T00:01:45;3.45;;;3.25;;
37931;SDS011;23758;42.640;23.302;2022-11-15T00:04:11;3.30;;;3.10;;
37931;SDS011;23758;42.640;23.302;2022-11-15T00:06:36;3.10;;;2.90;;
37931;SDS011;23758;42.640;23.302;2022-11-15T00:09:02;3.63;;;3.42;;
37931;SDS011;23758;42.640;23.302;2022-11-15T00:11:28;3.63;;;3.42;;
37931;SDS011;23758;42.640;23.302;2022-11-15T00:13:55;3.40;;;3.20;;
37931;SDS011;23758;42.640;23.302;2022-11-15T00:16:21;3.45;;;3.25;;
37931;SDS011;23758;42.640;23.302;2022-11-15T00:18:46;3.53;;;3.33;;
37931;SDS011;23758;42.640;23.302;2022-11-15T00:21:13;3.80;;;3.50;;
37931;SDS011;23758;42.640;23.302;2022-11-15T00:23:39;4.38;;;4.07;;
37931;SDS011;23758;42.640;23.302;2022-11-15T00:26:04;3.55;;;3.35;;
37931;SDS011;23758;42.640;23.302;2022-11-15T00:28:30;3.33;;;3.13;;
37931;SDS011;23758;42.640;23.302;2022-11-15T00:31:05;3.70;;;3.50;;
37931;SDS011;23758;42.640;23.302;2022-11-15T00:33:32;3.60;;;3.40;;
37931;SDS011;23758;42.640;23.302;2022-11-15T00:38:31;3.50;;;3.30;;
37931;SDS011;23758;42.640;23.302;2022-11-15T00:40:58;3.88;;;3.58;;
37931;SDS011;23758;42.640;23.302;2022-11-15T00:43:24;3.35;;;3.15;;
37931;SDS011;23758;42.640;23.302;2022-11-15T00:45:49;3.50;;;3.30;;
37931;SDS011;23758;42.640;23.302;2022-11-15T00:48:15;3.20;;;3.00;;
37931;SDS011;23758;42.640;23.302;2022-11-15T00:50:40;3.50;;;3.30;;
37931;SDS011;23758;42.640;23.302;2022-11-15T00:53:05;3.88;;;3.58;;
37931;SDS011;23758;42.640;23.302;2022-11-15T00:55:31;3.53;;;3.33;;
37931;SDS011;23758;42.640;23.302;2022-11-15T00:57:56;3.50;;;3.30;;
37931;SDS011;23758;42.640;23.302;2022-11-15T01:00:22;3.50;;;3.30;;
37931;SDS011;23758;42.640;23.302;2022-11-15T01:02:48;3.35;;;3.15;;
37931;SDS011;23758;42.640;23.302;2022-11-15T01:05:13;3.45;;;3.25;;
37931;SDS011;23758;42.640;23.302;2022-11-15T01:07:39;3.40;;;3.20;;
37931;SDS011;23758;42.640;23.302;2022-11-15T01:10:04;3.47;;;3.28;;
37931;SDS011;23758;42.640;23.302;2022-11-15T01:12:30;3.63;;;3.42;;
37931;SDS011;23758;42.640;23.302;2022-11-15T01:14:56;3.70;;;3.50;;
37931;SDS011;23758;42.640;23.302;2022-11-15T01:17:21;3.30;;;3.10;;
37931;SDS011;23758;42.640;23.302;2022-11-15T01:19:47;3.58;;;3.38;;
37931;SDS011;23758;42.640;23.302;2022-11-15T01:22:13;3.97;;;3.67;;
37931;SDS011;23758;42.640;23.302;2022-11-15T01:24:38;3.47;;;3.25;;
37931;SDS011;23758;42.640;23.302;2022-11-15T01:27:04;3.65;;;3.45;;
37931;SDS011;23758;42.640;23.302;2022-11-15T01:29:29;3.40;;;3.20;;
37931;SDS011;23758;42.640;23.302;2022-11-15T01:31:55;3.67;;;3.38;;
37931;SDS011;23758;42.640;23.302;2022-11-15T01:34:21;3.30;;;3.10;;
37931;SDS011;23758;42.640;23.302;2022-11-15T01:36:46;3.67;;;3.38;;
37931;SDS011;23758;42.640;23.302;2022-11-15T01:39:12;3.40;;;3.20;;
37931;SDS011;23758;42.640;23.302;2022-11-15T01:41:37;3.33;;;3.13;;
37931;SDS011;23758;42.640;23.302;2022-11-15T01:47:15;3.30;;;3.10;;
37931;SDS011;23758;42.640;23.302;2022-11-15T01:50:28;3.65;;;3.40;;
37931;SDS011;23758;42.640;23.302;2022-11-15T01:52:35;3.40;;;3.20;;
37931;SDS011;23758;42.640;23.302;2022-11-15T01:55:14;3.30;;;3.10;;
37931;SDS011;23758;42.640;23.302;2022-11-15T01:57:43;3.10;;;2.90;;
37931;SDS011;23758;42.640;23.302;2022-11-15T02:00:09;3.50;;;3.30;;
37931;SDS011;23758;42.640;23.302;2022-11-15T02:02:36;3.88;;;3.40;;
37931;SDS011;23758;42.640;23.302;2022-11-15T02:05:02;3.67;;;3.38;;
37931;SDS011;23758;42.640;23.302;2022-11-15T02:07:28;3.50;;;3.30;;
37931;SDS011;23758;42.640;23.302;2022-11-15T02:09:54;4.15;;;3.85;;
37931;SDS011;23758;42.640;23.302;2022-11-15T02:12:20;3.88;;;3.58;;
37931;SDS011;23758;42.640;23.302;2022-11-15T02:14:47;3.80;;;3.60;;
37931;SDS011;23758;42.640;23.302;2022-11-15T02:20:05;3.63;;;3.42;;
37931;SDS011;23758;42.640;23.302;2022-11-15T02:26:03;3.55;;;3.35;;
37931;SDS011;23758;42.640;23.302;2022-11-15T02:28:53;3.13;;;2.92;;
37931;SDS011;23758;42.640;23.302;2022-11-15T02:34:26;3.50;;;3.30;;
37931;SDS011;23758;42.640;23.302;2022-11-15T02:37:03;3.13;;;2.92;;
37931;SDS011;23758;42.640;23.302;2022-11-15T02:39:42;3.63;;;3.40;;
37931;SDS011;23758;42.640;23.302;2022-11-15T02:42:15;3.10;;;2.90;;
37931;SDS011;23758;42.640;23.302;2022-11-15T02:45:04;3.40;;;3.20;;
37931;SDS011;23758;42.640;23.302;2022-11-15T02:47:31;3.50;;;3.30;;
37931;SDS011;23758;42.640;23.302;2022-11-15T02:50:18;4.25;;;3.60;;
37931;SDS011;23758;42.640;23.302;2022-11-15T02:52:50;3.40;;;3.20;;
37931;SDS011;23758;42.640;23.302;2022-11-15T03:03:29;4.70;;;4.30;;
37931;SDS011;23758;42.640;23.302;2022-11-15T03:07:24;3.78;;;3.55;;
37931;SDS011;23758;42.640;23.302;2022-11-15T03:12:11;3.63;;;3.42;;
37931;SDS011;23758;42.640;23.302;2022-11-15T03:14:46;4.30;;;4.00;;
37931;SDS011;23758;42.640;23.302;2022-11-15T03:19:47;4.40;;;4.10;;
37931;SDS011;23758;42.640;23.302;2022-11-15T03:22:16;3.97;;;3.67;;
37931;SDS011;23758;42.640;23.302;2022-11-15T03:24:45;4.53;;;4.20;;
37931;SDS011;23758;42.640;23.302;2022-11-15T03:27:12;4.18;;;3.80;;
37931;SDS011;23758;42.640;23.302;2022-11-15T03:29:42;3.97;;;3.70;;
37931;SDS011;23758;42.640;23.302;2022-11-15T03:32:18;3.33;;;3.13;;
37931;SDS011;23758;42.640;23.302;2022-11-15T03:37:14;3.50;;;3.30;;
37931;SDS011;23758;42.640;23.302;2022-11-15T03:39:41;4.20;;;3.90;;
37931;SDS011;23758;42.640;23.302;2022-11-15T03:47:16;3.47;;;3.28;;
37931;SDS011;23758;42.640;23.302;2022-11-15T03:49:46;3.58;;;3.38;;
37931;SDS011;23758;42.640;23.302;2022-11-15T03:52:20;4.20;;;3.90;;
37931;SDS011;23758;42.640;23.302;2022-11-15T03:54:53;3.60;;;3.40;;
37931;SDS011;23758;42.640;23.302;2022-11-15T03:57:20;3.70;;;3.50;;
37931;SDS011;23758;42.640;23.302;2022-11-15T03:59:46;3.53;;;3.33;;
37931;SDS011;23758;42.640;23.302;2022-11-15T04:02:11;4.10;;;3.80;;
37931;SDS011;23758;42.640;23.302;2022-11-15T04:04:37;3.83;;;3.53;;
37931;SDS011;23758;42.640;23.302;2022-11-15T04:07:03;3.80;;;3.50;;
37931;SDS011;23758;42.640;23.302;2022-11-15T04:09:28;3.50;;;3.30;;
37931;SDS011;23758;42.640;23.302;2022-11-15T04:11:54;3.85;;;3.63;;
37931;SDS011;23758;42.640;23.302;2022-11-15T04:14:19;3.97;;;3.67;;
37931;SDS011;23758;42.640;23.302;2022-11-15T04:16:45;4.47;;;4.15;;
37931;SDS011;23758;42.640;23.302;2022-11-15T04:19:10;3.65;;;3.45;;
37931;SDS011;23758;42.640;23.302;2022-11-15T04:21:54;3.53;;;3.33;;
37931;SDS011;23758;42.640;23.302;2022-11-15T04:24:38;4.00;;;3.70;;
37931;SDS011;23758;42.640;23.302;2022-11-15T04:27:04;3.65;;;3.45;;
37931;SDS011;23758;42.640;23.302;2022-11-15T04:29:29;3.40;;;3.20;;
37931;SDS011;23758;42.640;23.302;2022-11-15T04:32:04;3.55;;;3.35;;
37931;SDS011;23758;42.640;23.302;2022-11-15T04:34:30;3.45;;;3.25;;
37931;SDS011;23758;42.640;23.302;2022-11-15T04:36:56;4.00;;;3.70;;
37931;SDS011;23758;42.640;23.302;2022-11-15T04:39:37;3.50;;;3.30;;
37931;SDS011;23758;42.640;23.302;2022-11-15T04:42:03;3.90;;;3.60;;
37931;SDS011;23758;42.640;23.302;2022-11-15T04:44:28;3.97;;;3.67;;
37931;SDS011;23758;42.640;23.302;2022-11-15T04:46:54;3.67;;;3.47;;
37931;SDS011;23758;42.640;23.302;2022-11-15T04:49:19;3.63;;;3.42;;
37931;SDS011;23758;42.640;23.302;2022-11-15T04:51:45;3.75;;;3.50;;
37931;SDS011;23758;42.640;23.302;2022-11-15T04:54:10;3.75;;;3.50;;
37931;SDS011;23758;42.640;23.302;2022-11-15T04:56:36;3.85;;;3.63;;
37931;SDS011;23758;42.640;23.302;2022-11-15T04:59:01;3.55;;;3.35;;
37931;SDS011;23758;42.640;23.302;2022-11-15T05:01:27;3.83;;;3.63;;
37931;SDS011;23758;42.640;23.302;2022-11-15T05:03:52;5.05;;;4.07;;
37931;SDS011;23758;42.640;23.302;2022-11-15T05:06:36;4.80;;;4.25;;
37931;SDS011;23758;42.640;23.302;2022-11-15T05:09:03;3.30;;;3.10;;
37931;SDS011;23758;42.640;23.302;2022-11-15T05:11:29;3.80;;;3.50;;
37931;SDS011;23758;42.640;23.302;2022-11-15T05:13:54;3.47;;;3.28;;
37931;SDS011;23758;42.640;23.302;2022-11-15T05:16:20;4.13;;;3.72;;
37931;SDS011;23758;42.640;23.302;2022-11-15T05:18:46;3.72;;;3.53;;
37931;SDS011;23758;42.640;23.302;2022-11-15T05:21:12;3.60;;;3.40;;
37931;SDS011;23758;42.640;23.302;2022-11-15T05:23:40;3.80;;;3.60;;
37931;SDS011;23758;42.640;23.302;2022-11-15T05:26:06;4.05;;;3.75;;
37931;SDS011;23758;42.640;23.302;2022-11-15T05:28:32;3.40;;;3.20;;
37931;SDS011;23758;42.640;23.302;2022-11-15T05:31:01;3.88;;;3.58;;
37931;SDS011;23758;42.640;23.302;2022-11-15T05:33:35;3.47;;;3.28;;
37931;SDS011;23758;42.640;23.302;2022-11-15T05:36:05;3.33;;;3.13;;
37931;SDS011;23758;42.640;23.302;2022-11-15T05:38:35;4.22;;;3.80;;
37931;SDS011;23758;42.640;23.302;2022-11-15T05:41:00;4.05;;;3.75;;
37931;SDS011;23758;42.640;23.302;2022-11-15T05:43:27;3.97;;;3.67;;
37931;SDS011;23758;42.640;23.302;2022-11-15T05:45:53;3.97;;;3.67;;
37931;SDS011;23758;42.640;23.302;2022-11-15T05:48:18;3.95;;;3.65;;
37931;SDS011;23758;42.640;23.302;2022-11-15T05:50:45;3.50;;;3.30;;
37931;SDS011;23758;42.640;23.302;2022-11-15T05:53:12;3.85;;;3.55;;
37931;SDS011;23758;42.640;23.302;2022-11-15T05:55:38;4.13;;;3.83;;
37931;SDS011;23758;42.640;23.302;2022-11-15T05:58:04;3.88;;;3.58;;
37931;SDS011;23758;42.640;23.302;2022-11-15T06:00:30;3.83;;;3.60;;
37931;SDS011;23758;42.640;23.302;2022-11-15T06:02:55;3.72;;;3.53;;
37931;SDS011;23758;42.640;23.302;2022-11-15T06:05:20;3.45;;;3.25;;
37931;SDS011;23758;42.640;23.302;2022-11-15T06:07:46;3.28;;;3.08;;
37931;SDS011;23758;42.640;23.302;2022-11-15T06:10:11;4.00;;;3.70;;
37931;SDS011;23758;42.640;23.302;2022-11-15T06:12:37;3.40;;;3.20;;
37931;SDS011;23758;42.640;23.302;2022-11-15T06:15:02;3.45;;;3.25;;
37931;SDS011;23758;42.640;23.302;2022-11-15T06:17:28;3.88;;;3.58;;
37931;SDS011;23758;42.640;23.302;2022-11-15T06:19:54;3.90;;;3.55;;
37931;SDS011;23758;42.640;23.302;2022-11-15T06:22:19;3.28;;;3.08;;
37931;SDS011;23758;42.640;23.302;2022-11-15T06:24:45;5.00;;;3.35;;
37931;SDS011;23758;42.640;23.302;2022-11-15T06:27:11;3.72;;;3.45;;
37931;SDS011;23758;42.640;23.302;2022-11-15T06:29:37;3.80;;;3.53;;
37931;SDS011;23758;42.640;23.302;2022-11-15T06:32:02;3.63;;;3.40;;
37931;SDS011;23758;42.640;23.302;2022-11-15T06:34:28;4.95;;;4.63;;
37931;SDS011;23758;42.640;23.302;2022-11-15T06:36:54;3.28;;;3.08;;
37931;SDS011;23758;42.640;23.302;2022-11-15T06:39:19;3.20;;;3.00;;
37931;SDS011;23758;42.640;23.302;2022-11-15T06:41:45;3.97;;;3.67;;
37931;SDS011;23758;42.640;23.302;2022-11-15T06:44:11;3.50;;;3.30;;
37931;SDS011;23758;42.640;23.302;2022-11-15T06:46:36;3.55;;;3.25;;
37931;SDS011;23758;42.640;23.302;2022-11-15T06:49:01;3.20;;;3.00;;
37931;SDS011;23758;42.640;23.302;2022-11-15T06:51:27;3.40;;;3.20;;
37931;SDS011;23758;42.640;23.302;2022-11-15T06:53:53;3.25;;;3.03;;
37931;SDS011;23758;42.640;23.302;2022-11-15T06:56:18;3.33;;;3.13;;
37931;SDS011;23758;42.640;23.302;2022-11-15T06:58:44;4.38;;;3.97;;
37931;SDS011;23758;42.640;23.302;2022-11-15T07:01:10;3.33;;;3.13;;
37931;SDS011;23758;42.640;23.302;2022-11-15T07:03:38;3.78;;;3.55;;
37931;SDS011;23758;42.640;23.302;2022-11-15T07:06:04;4.13;;;3.83;;
37931;SDS011;23758;42.640;23.302;2022-11-15T07:08:30;3.22;;;3.03;;
37931;SDS011;23758;42.640;23.302;2022-11-15T07:11:03;3.40;;;3.20;;
37931;SDS011;23758;42.640;23.302;2022-11-15T07:13:31;3.88;;;3.58;;
37931;SDS011;23758;42.640;23.302;2022-11-15T07:16:07;3.35;;;3.15;;
37931;SDS011;23758;42.640;23.302;2022-11-15T07:18:34;3.17;;;2.97;;
37931;SDS011;23758;42.640;23.302;2022-11-15T07:21:01;3.78;;;3.47;;
37931;SDS011;23758;42.640;23.302;2022-11-15T07:23:30;4.03;;;3.72;;
37931;SDS011;23758;42.640;23.302;2022-11-15T07:25:56;3.95;;;3.55;;
37931;SDS011;23758;42.640;23.302;2022-11-15T07:28:23;4.25;;;3.63;;
37931;SDS011;23758;42.640;23.302;2022-11-15T07:30:49;3.67;;;3.38;;
37931;SDS011;23758;42.640;23.302;2022-11-15T07:33:14;3.53;;;3.33;;
37931;SDS011;23758;42.640;23.302;2022-11-15T07:35:40;3.40;;;3.20;;
37931;SDS011;23758;42.640;23.302;2022-11-15T07:38:05;3.47;;;3.28;;
37931;SDS011;23758;42.640;23.302;2022-11-15T07:40:31;3.50;;;3.30;;
37931;SDS011;23758;42.640;23.302;2022-11-15T07:43:04;3.88;;;3.63;;
37931;SDS011;23758;42.640;23.302;2022-11-15T07:45:30;4.13;;;3.72;;
37931;SDS011;23758;42.640;23.302;2022-11-15T07:47:58;3.45;;;3.20;;
37931;SDS011;23758;42.640;23.302;2022-11-15T07:50:24;5.80;;;4.70;;
37931;SDS011;23758;42.640;23.302;2022-11-15T07:52:57;4.13;;;3.83;;
37931;SDS011;23758;42.640;23.302;2022-11-15T07:55:24;4.35;;;4.00;;
37931;SDS011;23758;42.640;23.302;2022-11-15T07:57:50;3.65;;;3.45;;
37931;SDS011;23758;42.640;23.302;2022-11-15T08:00:16;4.25;;;3.95;;
37931;SDS011;23758;42.640;23.302;2022-11-15T08:02:42;5.20;;;4.78;;
37931;SDS011;23758;42.640;23.302;2022-11-15T08:05:07;4.88;;;4.47;;
37931;SDS011;23758;42.640;23.302;2022-11-15T08:07:33;3.90;;;3.60;;
37931;SDS011;23758;42.640;23.302;2022-11-15T08:09:58;4.20;;;3.90;;
37931;SDS011;23758;42.640;23.302;2022-11-15T08:12:26;3.75;;;3.45;;
37931;SDS011;23758;42.640;23.302;2022-11-15T08:14:54;3.53;;;3.22;;
37931;SDS011;23758;42.640;23.302;2022-11-15T08:17:21;4.00;;;3.78;;
37931;SDS011;23758;42.640;23.302;2022-11-15T08:19:48;6.30;;;5.10;;
37931;SDS011;23758;42.640;23.302;2022-11-15T08:22:13;5.93;;;5.43;;
37931;SDS011;23758;42.640;23.302;2022-11-15T08:24:39;5.25;;;4.68;;
37931;SDS011;23758;42.640;23.302;2022-11-15T08:27:04;5.63;;;5.13;;
37931;SDS011;23758;42.640;23.302;2022-11-15T08:29:30;5.03;;;4.63;;
37931;SDS011;23758;42.640;23.302;2022-11-15T08:31:55;5.55;;;5.15;;
37931;SDS011;23758;42.640;23.302;2022-11-15T08:34:21;4.93;;;4.53;;
37931;SDS011;23758;42.640;23.302;2022-11-15T08:36:47;6.15;;;5.65;;
37931;SDS011;23758;42.640;23.302;2022-11-15T08:39:12;4.88;;;4.55;;
37931;SDS011;23758;42.640;23.302;2022-11-15T08:41:38;8.93;;;5.32;;
37931;SDS011;23758;42.640;23.302;2022-11-15T08:44:04;5.22;;;4.75;;
37931;SDS011;23758;42.640;23.302;2022-11-15T08:46:29;4.78;;;4.47;;
37931;SDS011;23758;42.640;23.302;2022-11-15T08:48:55;6.85;;;6.30;;
37931;SDS011;23758;42.640;23.302;2022-11-15T08:51:20;5.75;;;5.30;;
37931;SDS011;23758;42.640;23.302;2022-11-15T08:53:46;6.45;;;5.07;;
37931;SDS011;23758;42.640;23.302;2022-11-15T08:56:12;3.97;;;3.72;;
37931;SDS011;23758;42.640;23.302;2022-11-15T08:58:38;4.80;;;4.43;;
37931;SDS011;23758;42.640;23.302;2022-11-15T09:01:04;5.38;;;5.00;;
37931;SDS011;23758;42.640;23.302;2022-11-15T09:03:30;5.70;;;5.25;;
37931;SDS011;23758;42.640;23.302;2022-11-15T09:06:00;6.68;;;6.13;;
37931;SDS011;23758;42.640;23.302;2022-11-15T09:08:28;4.47;;;4.18;;
37931;SDS011;23758;42.640;23.302;2022-11-15T09:10:55;5.65;;;5.15;;
37931;SDS011;23758;42.640;23.302;2022-11-15T09:13:20;5.00;;;4.60;;
37931;SDS011;23758;42.640;23.302;2022-11-15T09:15:46;6.03;;;5.63;;
37931;SDS011;23758;42.640;23.302;2022-11-15T09:18:12;6.13;;;5.63;;
37931;SDS011;23758;42.640;23.302;2022-11-15T09:20:37;5.60;;;5.10;;
37931;SDS011;23758;42.640;23.302;2022-11-15T09:23:04;6.05;;;5.55;;
37931;SDS011;23758;42.640;23.302;2022-11-15T09:25:30;5.13;;;4.72;;
37931;SDS011;23758;42.640;23.302;2022-11-15T09:27:56;6.55;;;5.95;;
37931;SDS011;23758;42.640;23.302;2022-11-15T09:30:22;5.47;;;5.10;;
37931;SDS011;23758;42.640;23.302;2022-11-15T09:32:48;5.63;;;5.07;;
37931;SDS011;23758;42.640;23.302;2022-11-15T09:35:13;4.65;;;4.25;;
37931;SDS011;23758;42.640;23.302;2022-11-15T09:37:39;5.97;;;5.40;;
37931;SDS011;23758;42.640;23.302;2022-11-15T09:40:04;7.15;;;6.47;;
37931;SDS011;23758;42.640;23.302;2022-11-15T09:45:20;6.63;;;6.00;;
37931;SDS011;23758;42.640;23.302;2022-11-15T09:50:36;6.50;;;6.00;;
37931;SDS011;23758;42.640;23.302;2022-11-15T09:53:13;5.72;;;5.32;;
37931;SDS011;23758;42.640;23.302;2022-11-15T09:56:01;6.07;;;5.57;;
37931;SDS011;23758;42.640;23.302;2022-11-15T10:01:11;5.60;;;5.20;;
37931;SDS011;23758;42.640;23.302;2022-11-15T10:03:41;4.90;;;4.60;;
37931;SDS011;23758;42.640;23.302;2022-11-15T10:06:14;7.63;;;5.63;;
37931;SDS011;23758;42.640;23.302;2022-11-15T10:11:24;4.95;;;4.60;;
37931;SDS011;23758;42.640;23.302;2022-11-15T10:13:52;6.10;;;5.60;;
37931;SDS011;23758;42.640;23.302;2022-11-15T10:19:03;5.65;;;5.20;;
37931;SDS011;23758;42.640;23.302;2022-11-15T10:24:27;7.00;;;6.30;;
37931;SDS011;23758;42.640;23.302;2022-11-15T10:26:54;5.90;;;5.30;;
37931;SDS011;23758;42.640;23.302;2022-11-15T10:29:21;5.75;;;5.28;;
37931;SDS011;23758;42.640;23.302;2022-11-15T10:31:48;5.22;;;4.82;;
37931;SDS011;23758;42.640;23.302;2022-11-15T10:34:17;5.18;;;4.78;;
37931;SDS011;23758;42.640;23.302;2022-11-15T10:36:45;6.60;;;6.00;;
37931;SDS011;23758;42.640;23.302;2022-11-15T10:39:12;7.53;;;6.13;;
37931;SDS011;23758;42.640;23.302;2022-11-15T10:41:39;6.03;;;5.22;;
37931;SDS011;23758;42.640;23.302;2022-11-15T10:46:31;5.70;;;5.28;;
37931;SDS011;23758;42.640;23.302;2022-11-15T10:51:49;6.75;;;6.15;;
37931;SDS011;23758;42.640;23.302;2022-11-15T10:54:33;5.50;;;5.10;;
37931;SDS011;23758;42.640;23.302;2022-11-15T10:56:59;5.88;;;5.22;;
37931;SDS011;23758;42.640;23.302;2022-11-15T10:59:31;5.63;;;5.22;;
37931;SDS011;23758;42.640;23.302;2022-11-15T11:01:57;5.70;;;5.30;;
37931;SDS011;23758;42.640;23.302;2022-11-15T11:04:23;6.95;;;5.68;;
37931;SDS011;23758;42.640;23.302;2022-11-15T11:06:55;5.82;;;5.40;;
37931;SDS011;23758;42.640;23.302;2022-11-15T11:09:31;5.65;;;5.15;;
37931;SDS011;23758;42.640;23.302;2022-11-15T11:11:57;13.80;;;4.95;;
37931;SDS011;23758;42.640;23.302;2022-11-15T11:20:00;4.95;;;4.55;;
37931;SDS011;23758;42.640;23.302;2022-11-15T11:22:32;6.35;;;5.82;;
37931;SDS011;23758;42.640;23.302;2022-11-15T11:30:32;5.80;;;5.30;;
37931;SDS011;23758;42.640;23.302;2022-11-15T11:33:15;4.75;;;4.45;;
37931;SDS011;23758;42.640;23.302;2022-11-15T11:47:00;5.50;;;4.50;;
37931;SDS011;23758;42.640;23.302;2022-11-15T11:55:03;3.95;;;3.65;;
37931;SDS011;23758;42.640;23.302;2022-11-15T12:02:42;5.63;;;4.90;;
37931;SDS011;23758;42.640;23.302;2022-11-15T12:05:13;5.80;;;4.35;;
37931;SDS011;23758;42.640;23.302;2022-11-15T12:10:56;4.50;;;4.20;;
37931;SDS011;23758;42.640;23.302;2022-11-15T12:13:26;6.15;;;5.32;;
37931;SDS011;23758;42.640;23.302;2022-11-15T12:15:59;6.30;;;4.95;;
37931;SDS011;23758;42.640;23.302;2022-11-15T12:18:28;5.32;;;4.82;;
37931;SDS011;23758;42.640;23.302;2022-11-15T12:20:59;4.65;;;4.25;;
37931;SDS011;23758;42.640;23.302;2022-11-15T12:23:29;7.13;;;5.05;;
37931;SDS011;23758;42.640;23.302;2022-11-15T12:28:35;5.53;;;5.05;;
37931;SDS011;23758;42.640;23.302;2022-11-15T12:33:57;5.57;;;5.07;;
37931;SDS011;23758;42.640;23.302;2022-11-15T12:38:52;5.93;;;5.35;;
37931;SDS011;23758;42.640;23.302;2022-11-15T12:41:26;5.05;;;4.65;;
37931;SDS011;23758;42.640;23.302;2022-11-15T12:43:53;5.35;;;4.90;;
37931;SDS011;23758;42.640;23.302;2022-11-15T12:51:17;5.75;;;5.25;;
37931;SDS011;23758;42.640;23.302;2022-11-15T12:53:45;4.47;;;4.18;;
37931;SDS011;23758;42.640;23.302;2022-11-15T12:58:51;6.05;;;4.65;;
37931;SDS011;23758;42.640;23.302;2022-11-15T13:19:44;5.78;;;5.28;;
37931;SDS011;23758;42.640;23.302;2022-11-15T13:22:11;5.28;;;4.78;;
37931;SDS011;23758;42.640;23.302;2022-11-15T13:24:55;4.63;;;4.22;;
37931;SDS011;23758;42.640;23.302;2022-11-15T13:27:21;4.38;;;3.97;;
37931;SDS011;23758;42.640;23.302;2022-11-15T13:29:47;5.35;;;4.90;;
37931;SDS011;23758;42.640;23.302;2022-11-15T13:32:13;4.78;;;4.30;;
37931;SDS011;23758;42.640;23.302;2022-11-15T13:34:39;4.50;;;4.20;;
37931;SDS011;23758;42.640;23.302;2022-11-15T13:37:29;4.60;;;3.95;;
37931;SDS011;23758;42.640;23.302;2022-11-15T13:39:57;4.60;;;4.22;;
37931;SDS011;23758;42.640;23.302;2022-11-15T13:42:36;4.47;;;4.07;;
37931;SDS011;23758;42.640;23.302;2022-11-15T13:45:03;4.07;;;3.78;;
37931;SDS011;23758;42.640;23.302;2022-11-15T13:47:29;3.92;;;3.63;;
37931;SDS011;23758;42.640;23.302;2022-11-15T13:49:56;3.72;;;3.47;;
37931;SDS011;23758;42.640;23.302;2022-11-15T13:52:22;4.22;;;3.92;;
37931;SDS011;23758;42.640;23.302;2022-11-15T13:57:38;6.88;;;6.10;;
37931;SDS011;23758;42.640;23.302;2022-11-15T14:00:24;5.55;;;5.05;;
37931;SDS011;23758;42.640;23.302;2022-11-15T14:02:53;4.75;;;4.35;;
37931;SDS011;23758;42.640;23.302;2022-11-15T14:05:20;4.88;;;4.53;;
37931;SDS011;23758;42.640;23.302;2022-11-15T14:08:01;10.75;;;4.95;;
37931;SDS011;23758;42.640;23.302;2022-11-15T14:10:35;4.45;;;4.15;;
37931;SDS011;23758;42.640;23.302;2022-11-15T14:13:02;6.72;;;5.82;;
37931;SDS011;23758;42.640;23.302;2022-11-15T14:17:56;5.22;;;4.72;;
37931;SDS011;23758;42.640;23.302;2022-11-15T14:22:54;5.60;;;4.75;;
37931;SDS011;23758;42.640;23.302;2022-11-15T14:30:56;5.20;;;4.70;;
37931;SDS011;23758;42.640;23.302;2022-11-15T14:35:55;6.10;;;5.60;;
37931;SDS011;23758;42.640;23.302;2022-11-15T14:38:22;6.07;;;5.63;;
37931;SDS011;23758;42.640;23.302;2022-11-15T14:40:49;6.15;;;5.65;;
37931;SDS011;23758;42.640;23.302;2022-11-15T14:43:14;4.88;;;4.53;;
37931;SDS011;23758;42.640;23.302;2022-11-15T14:45:40;5.88;;;5.38;;
37931;SDS011;23758;42.640;23.302;2022-11-15T14:48:06;5.93;;;5.43;;
37931;SDS011;23758;42.640;23.302;2022-11-15T14:50:32;5.57;;;5.07;;
37931;SDS011;23758;42.640;23.302;2022-11-15T14:52:58;5.85;;;5.35;;
37931;SDS011;23758;42.640;23.302;2022-11-15T14:55:26;5.35;;;4.95;;
37931;SDS011;23758;42.640;23.302;2022-11-15T14:57:57;6.53;;;6.03;;
37931;SDS011;23758;42.640;23.302;2022-11-15T15:00:23;6.60;;;5.85;;
37931;SDS011;23758;42.640;23.302;2022-11-15T15:02:50;5.30;;;4.80;;
37931;SDS011;23758;42.640;23.302;2022-11-15T15:05:19;5.22;;;4.30;;
37931;SDS011;23758;42.640;23.302;2022-11-15T15:07:44;5.75;;;5.28;;
37931;SDS011;23758;42.640;23.302;2022-11-15T15:10:10;4.65;;;4.30;;
37931;SDS011;23758;42.640;23.302;2022-11-15T15:12:37;4.13;;;3.85;;
37931;SDS011;23758;42.640;23.302;2022-11-15T15:15:02;4.57;;;4.28;;
37931;SDS011;23758;42.640;23.302;2022-11-15T15:17:28;6.00;;;5.50;;
37931;SDS011;23758;42.640;23.302;2022-11-15T15:19:54;5.18;;;4.78;;
37931;SDS011;23758;42.640;23.302;2022-11-15T15:22:19;5.10;;;4.70;;
37931;SDS011;23758;42.640;23.302;2022-11-15T15:24:47;3.67;;;3.47;;
37931;SDS011;23758;42.640;23.302;2022-11-15T15:27:13;4.22;;;3.92;;
37931;SDS011;23758;42.640;23.302;2022-11-15T15:29:39;4.07;;;3.78;;
37931;SDS011;23758;42.640;23.302;2022-11-15T15:32:05;4.82;;;4.43;;
37931;SDS011;23758;42.640;23.302;2022-11-15T15:34:30;4.97;;;4.60;;
37931;SDS011;23758;42.640;23.302;2022-11-15T15:39:51;4.50;;;4.10;;
37931;SDS011;23758;42.640;23.302;2022-11-15T15:42:20;4.35;;;4.05;;
37931;SDS011;23758;42.640;23.302;2022-11-15T15:44:46;4.80;;;4.47;;
37931;SDS011;23758;42.640;23.302;2022-11-15T15:47:22;5.38;;;4.65;;
37931;SDS011;23758;42.640;23.302;2022-11-15T15:49:51;5.18;;;4.75;;
37931;SDS011;23758;42.640;23.302;2022-11-15T15:52:17;4.18;;;3.88;;
37931;SDS011;23758;42.640;23.302;2022-11-15T15:54:43;4.25;;;3.95;;
37931;SDS011;23758;42.640;23.302;2022-11-15T15:57:10;3.90;;;3.60;;
37931;SDS011;23758;42.640;23.302;2022-11-15T15:59:37;3.75;;;3.45;;
37931;SDS011;23758;42.640;23.302;2022-11-15T16:02:02;3.85;;;3.55;;
37931;SDS011;23758;42.640;23.302;2022-11-15T16:04:28;3.53;;;3.22;;
37931;SDS011;23758;42.640;23.302;2022-11-15T16:06:57;2.97;;;2.78;;
37931;SDS011;23758;42.640;23.302;2022-11-15T16:09:26;3.13;;;2.92;;
37931;SDS011;23758;42.640;23.302;2022-11-15T16:12:10;3.47;;;3.28;;
37931;SDS011;23758;42.640;23.302;2022-11-15T16:14:36;4.07;;;3.78;;
37931;SDS011;23758;42.640;23.302;2022-11-15T16:17:02;3.55;;;3.25;;
37931;SDS011;23758;42.640;23.302;2022-11-15T16:19:27;3.30;;;2.90;;
37931;SDS011;23758;42.640;23.302;2022-11-15T16:21:53;3.10;;;2.90;;
37931;SDS011;23758;42.640;23.302;2022-11-15T16:24:19;3.03;;;2.83;;
37931;SDS011;23758;42.640;23.302;2022-11-15T16:26:45;3.22;;;3.03;;
37931;SDS011;23758;42.640;23.302;2022-11-15T16:29:12;3.25;;;3.05;;
37931;SDS011;23758;42.640;23.302;2022-11-15T16:31:37;3.20;;;3.00;;
37931;SDS011;23758;42.640;23.302;2022-11-15T16:34:04;4.20;;;3.88;;
37931;SDS011;23758;42.640;23.302;2022-11-15T16:36:32;3.30;;;3.10;;
37931;SDS011;23758;42.640;23.302;2022-11-15T16:38:58;3.60;;;3.30;;
37931;SDS011;23758;42.640;23.302;2022-11-15T16:41:24;3.88;;;3.63;;
37931;SDS011;23758;42.640;23.302;2022-11-15T16:43:50;4.43;;;4.10;;
37931;SDS011;23758;42.640;23.302;2022-11-15T16:46:17;4.65;;;4.25;;
37931;SDS011;23758;42.640;23.302;2022-11-15T16:48:44;4.05;;;3.75;;
37931;SDS011;23758;42.640;23.302;2022-11-15T16:51:11;4.70;;;4.40;;
37931;SDS011;23758;42.640;23.302;2022-11-15T16:53:37;4.05;;;3.75;;
37931;SDS011;23758;42.640;23.302;2022-11-15T16:56:03;5.05;;;4.55;;
37931;SDS011;23758;42.640;23.302;2022-11-15T16:58:29;6.05;;;5.57;;
37931;SDS011;23758;42.640;23.302;2022-11-15T17:00:55;6.28;;;5.78;;
37931;SDS011;23758;42.640;23.302;2022-11-15T17:03:24;4.72;;;4.30;;
37931;SDS011;23758;42.640;23.302;2022-11-15T17:05:49;4.38;;;4.07;;